Time;durP1;ratioP1;P1;durP2;ratioP2;P2;SDS_P1;SDS_P2;PMS_P1;PMS_P2;Temp;Humidity;BMP_temperature;BMP_pressure;BME280_temperature;BME280_humidity;BME280_pressure;Samples;Min_cycle;Max_cycle;Signal;HPM_P1;HPM_P2
2021/03/17 00:03:01;;;;;;;0.57;0.57;;;;;;;0.83;100.00;101707.09;4993767;28;20077;-79
2021/03/17 00:06:05;;;;;;;1.00;1.00;;;;;;;0.80;100.00;101713.31;4993668;28;20505;-79
2021/03/17 00:09:08;;;;;;;0.80;0.80;;;;;;;0.73;100.00;101718.66;4994229;28;20069;-79
2021/03/17 00:12:12;;;;;;;0.70;0.70;;;;;;;0.73;100.00;101713.16;5009295;28;20076;-79
2021/03/17 00:15:19;;;;;;;0.57;0.57;;;;;;;0.76;100.00;101707.75;5012634;28;20069;-80
2021/03/17 00:18:23;;;;;;;0.95;0.95;;;;;;;0.82;100.00;101716.47;5012634;28;20408;-80
2021/03/17 00:21:27;;;;;;;0.77;0.77;;;;;;;0.75;100.00;101717.16;5013384;28;20061;-78
2021/03/17 00:24:30;;;;;;;0.70;0.70;;;;;;;0.67;100.00;101726.38;5013583;28;20061;-80
2021/03/17 00:27:34;;;;;;;0.90;0.90;;;;;;;0.60;100.00;101722.72;5012108;28;20057;-79
2021/03/17 00:30:40;;;;;;;0.70;0.70;;;;;;;0.52;100.00;101718.25;5012635;28;20439;-79
2021/03/17 00:33:43;;;;;;;0.63;0.63;;;;;;;0.50;100.00;101720.53;5012577;28;20439;-79
2021/03/17 00:36:47;;;;;;;0.63;0.63;;;;;;;0.48;100.00;101720.09;5011664;28;20061;-80
2021/03/17 00:39:50;;;;;;;0.88;0.88;;;;;;;0.44;100.00;101705.53;5011764;28;20069;-79
2021/03/17 00:42:54;;;;;;;0.60;0.60;;;;;;;0.40;100.00;101710.16;5012477;28;20084;-79
2021/03/17 00:45:58;;;;;;;0.55;0.55;;;;;;;0.38;100.00;101704.25;5011976;28;20061;-80
2021/03/17 00:49:02;;;;;;;0.57;0.57;;;;;;;0.42;100.00;101716.09;5012515;28;20065;-80
2021/03/17 00:52:05;;;;;;;0.60;0.60;;;;;;;0.39;100.00;101714.09;5011526;28;20550;-79
2021/03/17 00:55:10;;;;;;;0.60;0.60;;;;;;;0.32;100.00;101717.47;5012673;28;20060;-79
2021/03/17 00:58:14;;;;;;;0.50;0.50;;;;;;;0.26;100.00;101715.38;5012443;28;20085;-79
2021/03/17 01:01:17;;;;;;;0.90;0.90;;;;;;;0.18;100.00;101724.59;5011369;28;20061;-79
2021/03/17 01:04:21;;;;;;;0.80;0.80;;;;;;;0.12;100.00;101717.81;5011632;28;20057;-79
2021/03/17 01:07:24;;;;;;;0.43;0.43;;;;;;;0.07;100.00;101712.59;5002558;28;20081;-79
2021/03/17 01:10:35;;;;;;;0.85;0.85;;;;;;;0.06;100.00;101713.78;4992730;28;20053;-79
2021/03/17 01:13:39;;;;;;;0.85;0.85;;;;;;;0.00;100.00;101707.78;4992318;28;20081;-79
2021/03/17 01:16:42;;;;;;;0.77;0.77;;;;;;;-0.03;100.00;101720.25;4992554;28;20070;-79
2021/03/17 01:19:46;;;;;;;0.63;0.63;;;;;;;-0.07;100.00;101719.41;4992414;28;20057;-79
2021/03/17 01:22:49;;;;;;;0.80;0.80;;;;;;;-0.10;100.00;101724.78;4992579;28;20066;-79
2021/03/17 01:25:53;;;;;;;0.90;0.90;;;;;;;-0.13;100.00;101720.03;4992286;28;20061;-79
2021/03/17 01:28:56;;;;;;;0.98;0.98;;;;;;;-0.13;100.00;101725.50;4992225;28;20405;-79
2021/03/17 01:32:00;;;;;;;0.80;0.80;;;;;;;-0.11;100.00;101723.97;4991221;28;20527;-79
2021/03/17 01:35:14;;;;;;;0.73;0.73;;;;;;;-0.05;100.00;101733.50;4991748;28;20065;-79
2021/03/17 01:38:18;;;;;;;0.82;0.82;;;;;;;-0.10;100.00;101730.25;4991477;28;20061;-79
2021/03/17 01:41:21;;;;;;;1.00;1.00;;;;;;;-0.18;100.00;101726.56;4992110;28;20061;-79
2021/03/17 01:44:25;;;;;;;0.50;0.50;;;;;;;-0.27;100.00;101719.69;4991289;28;20519;-79
2021/03/17 01:47:28;;;;;;;0.93;0.93;;;;;;;-0.33;100.00;101716.44;4992059;28;20436;-79
2021/03/17 01:50:40;;;;;;;0.90;0.90;;;;;;;-0.35;100.00;101707.00;4990809;28;20053;-79
2021/03/17 01:53:43;;;;;;;1.00;1.00;;;;;;;-0.33;100.00;101700.03;4999919;28;20081;-80
2021/03/17 01:56:46;;;;;;;0.80;0.80;;;;;;;-0.30;100.00;101693.81;4999782;28;20627;-79
2021/03/17 01:59:50;;;;;;;0.90;0.90;;;;;;;-0.25;100.00;101690.81;4999783;28;20112;-79
2021/03/17 02:02:54;;;;;;;0.90;0.90;;;;;;;-0.20;100.00;101692.50;4991497;28;20134;-79
2021/03/17 02:05:58;;;;;;;0.88;0.88;;;;;;;-0.18;100.00;101699.19;4999549;28;20177;-79
2021/03/17 02:09:02;;;;;;;0.75;0.75;;;;;;;-0.19;100.00;101688.59;4991394;28;20065;-80
2021/03/17 02:12:26;;;;;;;0.55;0.55;;;;;;;-0.20;100.00;101701.50;4991360;28;20074;-79
2021/03/17 02:16:03;;;;;;;0.80;0.80;;;;;;;-0.29;100.00;101689.94;4998789;28;20061;-79
2021/03/17 02:19:12;;;;;;;0.80;0.80;;;;;;;-0.34;100.00;101694.91;4990644;28;20081;-79
2021/03/17 02:22:41;;;;;;;0.77;0.77;;;;;;;-0.42;100.00;101695.88;4990181;28;20063;-78
2021/03/17 02:26:16;;;;;;;0.43;0.43;;;;;;;-0.45;100.00;101699.31;5021542;28;20065;-79
2021/03/17 02:29:47;;;;;;;0.70;0.70;;;;;;;-0.46;100.00;101695.81;4990033;28;20412;-81
2021/03/17 02:33:20;;;;;;;0.60;0.60;;;;;;;-0.45;100.00;101697.41;4999294;28;20057;-79
2021/03/17 02:36:46;;;;;;;1.05;1.05;;;;;;;-0.49;100.00;101703.94;4997197;28;20065;-77
2021/03/17 02:40:25;;;;;;;1.00;1.00;;;;;;;-0.61;100.00;101698.56;4998713;28;20444;-79
2021/03/17 02:43:32;;;;;;;0.60;0.60;;;;;;;-0.71;100.00;101710.84;4988609;28;20070;-82
2021/03/17 02:46:39;;;;;;;0.98;0.98;;;;;;;-0.74;100.00;101711.56;4990877;28;20421;-78
2021/03/17 02:49:47;;;;;;;0.88;0.88;;;;;;;-0.74;100.00;101710.75;4990416;28;20125;-79
2021/03/17 02:52:55;;;;;;;0.60;0.60;;;;;;;-0.70;100.00;101712.44;4991159;28;20057;-83
2021/03/17 02:56:11;;;;;;;0.90;0.90;;;;;;;-0.66;100.00;101715.25;4990807;28;20066;-79
2021/03/17 02:59:19;;;;;;;0.50;0.50;;;;;;;-0.67;100.00;101710.94;4990649;28;20070;-79
2021/03/17 03:02:23;;;;;;;0.45;0.45;;;;;;;-0.68;100.00;101710.13;4998115;28;20053;-79
2021/03/17 03:05:28;;;;;;;0.70;0.70;;;;;;;-0.66;100.00;101713.31;4990716;28;20065;-79
2021/03/17 03:08:32;;;;;;;0.85;0.85;;;;;;;-0.68;100.00;101698.41;4990474;28;20053;-79
2021/03/17 03:11:36;;;;;;;0.60;0.60;;;;;;;-0.70;100.00;101701.50;4990544;28;20065;-79
2021/03/17 03:14:41;;;;;;;0.80;0.80;;;;;;;-0.72;100.00;101706.53;4990760;28;20074;-79
2021/03/17 03:17:46;;;;;;;1.00;1.00;;;;;;;-0.72;100.00;101713.94;4990404;28;20065;-79
2021/03/17 03:20:52;;;;;;;0.73;0.73;;;;;;;-0.77;100.00;101712.25;4990687;28;20062;-79
2021/03/17 03:23:58;;;;;;;0.77;0.77;;;;;;;-0.82;100.00;101709.78;4990660;28;20057;-79
2021/03/17 03:27:03;;;;;;;0.70;0.70;;;;;;;-0.81;100.00;101714.13;4990645;28;20523;-79
2021/03/17 03:30:14;;;;;;;0.85;0.85;;;;;;;-0.76;100.00;101719.31;4991217;28;20417;-79
2021/03/17 03:33:19;;;;;;;0.98;0.98;;;;;;;-0.64;100.00;101716.47;4992927;28;20065;-80
2021/03/17 03:36:24;;;;;;;0.80;0.80;;;;;;;-0.48;100.00;101708.25;4994115;28;20422;-79
2021/03/17 03:39:27;;;;;;;0.60;0.60;;;;;;;-0.31;100.00;101691.44;4994585;28;20444;-79
2021/03/17 03:42:31;;;;;;;0.77;0.77;;;;;;;-0.19;100.00;101681.16;4994254;28;20531;-79
2021/03/17 03:45:37;;;;;;;1.00;1.00;;;;;;;-0.21;100.00;101680.75;4994245;28;20081;-79
2021/03/17 03:48:40;;;;;;;0.82;0.82;;;;;;;-0.26;100.00;101672.03;5009565;28;20069;-79
2021/03/17 03:51:50;;;;;;;0.68;0.68;;;;;;;-0.26;100.00;101669.28;4994001;28;20058;-79
2021/03/17 03:55:06;;;;;;;0.60;0.60;;;;;;;-0.20;100.00;101671.38;4993915;28;20837;-79
2021/03/17 03:58:16;;;;;;;0.70;0.70;;;;;;;-0.13;100.00;101676.22;4993627;28;20073;-79
2021/03/17 04:01:38;;;;;;;0.90;0.90;;;;;;;-0.02;100.00;101683.50;4993140;28;20073;-79
2021/03/17 04:04:42;;;;;;;;;;;;;;;0.07;100.00;101679.75;4994319;28;20081;-79
2021/03/17 04:07:50;;;;;;;0.70;0.70;;;;;;;0.15;100.00;101684.22;4993600;28;19926;-79
2021/03/17 04:10:57;;;;;;;0.65;0.65;;;;;;;0.24;100.00;101682.06;4993878;28;20910;-79
2021/03/17 04:14:06;;;;;;;1.25;1.25;;;;;;;0.35;100.00;101678.38;4993656;28;20061;-79
2021/03/17 04:17:22;;;;;;;0.52;0.52;;;;;;;0.50;100.00;101682.16;5009051;28;20057;-79
2021/03/17 04:20:31;;;;;;;0.60;0.60;;;;;;;0.55;100.00;101695.59;5010222;28;20073;-79
2021/03/17 04:23:37;;;;;;;0.50;0.50;;;;;;;0.54;100.00;101704.97;5013093;28;20069;-79
2021/03/17 04:26:42;;;;;;;0.55;0.55;;;;;;;0.55;100.00;101690.09;5013055;28;20060;-77
2021/03/17 04:29:48;;;;;;;0.70;0.70;;;;;;;0.58;100.00;101694.88;5012867;28;20056;-79
2021/03/17 04:32:52;;;;;;;0.80;0.80;;;;;;;0.61;100.00;101710.56;5005228;28;20084;-76
2021/03/17 04:35:58;;;;;;;0.73;0.73;;;;;;;0.65;100.00;101711.47;5010917;28;20528;-79
2021/03/17 04:39:02;;;;;;;0.60;0.60;;;;;;;0.68;100.00;101721.69;5011904;28;20073;-79
2021/03/17 04:42:06;;;;;;;0.40;0.40;;;;;;;0.71;100.00;101720.97;4991983;28;20077;-79
2021/03/17 04:45:11;;;;;;;0.70;0.70;;;;;;;0.75;100.00;101719.09;4993007;28;20077;-79
2021/03/17 04:48:17;;;;;;;0.70;0.70;;;;;;;0.83;100.00;101723.53;4992581;28;20412;-79
2021/03/17 04:51:22;;;;;;;0.60;0.60;;;;;;;0.91;100.00;101719.75;4991913;28;20523;-79
2021/03/17 04:54:27;;;;;;;0.82;0.82;;;;;;;0.95;100.00;101715.16;4993115;28;20416;-79
2021/03/17 04:57:34;;;;;;;0.50;0.50;;;;;;;1.02;100.00;101714.50;4993039;28;20054;-78
2021/03/17 05:00:40;;;;;;;0.60;0.60;;;;;;;1.12;100.00;101713.88;4993082;28;20508;-79
2021/03/17 05:03:47;;;;;;;0.77;0.77;;;;;;;1.25;100.00;101699.59;4992770;28;20061;-79
2021/03/17 05:06:52;;;;;;;0.52;0.52;;;;;;;1.31;100.00;101709.09;4992692;28;20057;-79
2021/03/17 05:09:56;;;;;;;0.60;0.60;;;;;;;1.26;100.00;101709.41;4992537;28;20547;-79
2021/03/17 05:13:01;;;;;;;0.60;0.60;;;;;;;1.23;100.00;101704.66;4991736;28;20061;-77
2021/03/17 05:16:06;;;;;;;0.77;0.77;;;;;;;1.26;100.00;101692.94;4992528;28;20061;-78
2021/03/17 05:19:12;;;;;;;1.15;1.15;;;;;;;1.35;100.00;101689.94;4992484;28;20061;-79
2021/03/17 05:22:15;;;;;;;0.43;0.43;;;;;;;1.37;100.00;101688.41;4992311;28;20057;-78
2021/03/17 05:25:22;;;;;;;1.20;1.20;;;;;;;1.36;100.00;101675.88;4991805;28;20057;-78
2021/03/17 05:28:28;;;;;;;0.68;0.68;;;;;;;1.36;100.00;101686.84;4991665;28;20061;-78
2021/03/17 05:31:33;;;;;;;0.43;0.43;;;;;;;1.40;100.00;101665.72;4992201;28;20066;-79
2021/03/17 05:34:55;;;;;;;0.68;0.68;;;;;;;1.48;100.00;101672.91;4992362;28;20069;-79
2021/03/17 05:37:58;;;;;;;0.70;0.70;;;;;;;1.57;100.00;101674.56;4990384;28;20620;-79
2021/03/17 05:41:02;;;;;;;0.50;0.50;;;;;;;1.63;100.00;101679.38;4990312;28;20428;-77
2021/03/17 05:44:07;;;;;;;0.57;0.57;;;;;;;1.63;100.00;101675.84;4990677;28;20065;-79
2021/03/17 05:47:11;;;;;;;0.55;0.55;;;;;;;1.66;100.00;101662.19;4990547;28;20535;-79
2021/03/17 05:50:20;;;;;;;0.70;0.70;;;;;;;1.69;100.00;101666.13;4990437;28;20061;-79
2021/03/17 05:53:24;;;;;;;0.45;0.45;;;;;;;1.75;100.00;101676.44;4990644;28;20065;-79
2021/03/17 05:56:30;;;;;;;0.30;0.30;;;;;;;1.85;100.00;101673.03;4991804;28;20181;-78
2021/03/17 05:59:33;;;;;;;0.43;0.43;;;;;;;1.99;100.00;101680.69;4991700;28;20081;-78
2021/03/17 06:02:38;;;;;;;0.50;0.50;;;;;;;2.09;100.00;101667.06;4991387;28;20547;-79
2021/03/17 06:05:44;;;;;;;0.50;0.50;;;;;;;2.13;100.00;101681.63;4993047;28;20435;-79
2021/03/17 06:08:48;;;;;;;0.50;0.50;;;;;;;2.15;100.00;101681.25;4991444;28;20062;-78
2021/03/17 06:11:53;;;;;;;0.70;0.70;;;;;;;2.16;100.00;101680.09;4990425;28;20073;-78
2021/03/17 06:14:57;;;;;;;0.30;0.30;;;;;;;2.20;100.00;101686.44;4991456;28;20053;-79
2021/03/17 06:18:16;;;;;;;0.20;0.20;;;;;;;2.30;100.00;101691.25;4990271;28;20069;-79
2021/03/17 06:21:20;;;;;;;0.30;0.30;;;;;;;2.41;100.00;101707.88;4989781;28;20065;-79
2021/03/17 06:24:25;;;;;;;0.57;0.57;;;;;;;2.51;100.00;101697.03;4991413;28;20519;-79
2021/03/17 06:27:29;;;;;;;0.65;0.65;;;;;;;2.63;100.00;101715.22;4991217;28;20428;-78
2021/03/17 06:30:33;;;;;;;0.47;0.47;;;;;;;2.76;100.00;101725.59;4991825;28;20077;-79
2021/03/17 06:33:41;;;;;;;0.50;0.50;;;;;;;2.93;100.00;101713.97;4990977;28;20061;-78
2021/03/17 06:36:57;;;;;;;0.40;0.40;;;;;;;3.11;100.00;101724.34;4990857;28;20065;-78
2021/03/17 06:40:00;;;;;;;0.30;0.30;;;;;;;3.20;100.00;101733.88;4991058;28;20057;-78
2021/03/17 06:43:12;;;;;;;0.80;0.80;;;;;;;3.31;100.00;101717.44;4991009;28;20435;-79
2021/03/17 06:46:20;;;;;;;0.55;0.55;;;;;;;3.42;100.00;101740.38;4990571;28;20118;-79
2021/03/17 06:49:37;;;;;;;0.35;0.35;;;;;;;3.58;100.00;101743.63;4990045;28;20061;-79
2021/03/17 06:52:44;;;;;;;0.50;0.50;;;;;;;3.68;100.00;101742.94;4990913;28;20065;-78
2021/03/17 06:55:48;;;;;;;0.45;0.45;;;;;;;3.76;100.00;101736.28;4990348;28;20432;-78
2021/03/17 06:58:53;;;;;;;0.60;0.60;;;;;;;3.81;100.00;101741.44;4990904;28;20062;-78
2021/03/17 07:01:56;;;;;;;0.28;0.28;;;;;;;3.87;100.00;101734.41;4991532;28;20109;-77
2021/03/17 07:05:00;;;;;;;0.50;0.50;;;;;;;3.93;100.00;101738.38;4990198;28;20054;-78
2021/03/17 07:08:07;;;;;;;0.22;0.22;;;;;;;3.97;100.00;101733.66;4990436;28;20653;-78
2021/03/17 07:11:11;;;;;;;0.30;0.30;;;;;;;4.04;100.00;101722.69;4990385;28;20413;-78
2021/03/17 07:14:23;;;;;;;0.25;0.25;;;;;;;4.09;100.00;101724.28;4990308;28;20062;-78
2021/03/17 07:17:28;;;;;;;0.28;0.28;;;;;;;4.13;100.00;101734.16;4989651;28;20061;-77
2021/03/17 07:20:40;;;;;;;0.30;0.30;;;;;;;4.17;100.00;101739.69;4990741;28;20054;-79
2021/03/17 07:23:47;;;;;;;0.50;0.50;;;;;;;4.16;100.00;101738.88;4990779;28;20065;-79
2021/03/17 07:26:50;;;;;;;0.30;0.30;;;;;;;4.22;100.00;101729.06;4989436;28;20058;-79
2021/03/17 07:30:00;;;;;;;0.30;0.30;;;;;;;4.25;100.00;101725.53;4990721;28;20085;-79
2021/03/17 07:33:06;;;;;;;0.50;0.50;;;;;;;4.27;100.00;101733.41;4990297;28;20404;-78
2021/03/17 07:36:10;;;;;;;0.38;0.38;;;;;;;4.25;100.00;101722.00;4990484;28;20061;-78
2021/03/17 07:39:32;;;;;;;0.20;0.20;;;;;;;4.29;100.00;101709.81;4990456;28;20074;-79
2021/03/17 07:42:36;;;;;;;0.30;0.30;;;;;;;4.28;100.00;101716.50;4989938;28;20066;-78
2021/03/17 07:45:41;;;;;;;0.30;0.30;;;;;;;4.28;100.00;101705.47;4990441;28;20073;-78
2021/03/17 07:48:44;;;;;;;0.22;0.22;;;;;;;4.32;100.00;101706.28;4990333;28;20061;-79
2021/03/17 07:51:53;;;;;;;0.30;0.30;;;;;;;4.32;100.00;101708.25;4990077;28;20061;-79
2021/03/17 07:55:06;;;;;;;0.38;0.38;;;;;;;4.32;100.00;101698.00;4990203;28;20057;-78
2021/03/17 07:58:13;;;;;;;0.28;0.28;;;;;;;4.36;100.00;101698.81;4990389;28;20065;-79
2021/03/17 08:01:19;;;;;;;0.30;0.30;;;;;;;4.38;100.00;101715.75;4989525;28;20074;-79
2021/03/17 08:04:33;;;;;;;0.30;0.30;;;;;;;4.40;100.00;101707.88;4990876;28;20444;-78
2021/03/17 08:07:37;;;;;;;0.40;0.40;;;;;;;4.44;100.00;101725.22;4990200;28;20057;-78
2021/03/17 08:10:44;;;;;;;0.25;0.25;;;;;;;4.44;100.00;101739.03;4991766;28;20065;-78
2021/03/17 08:13:50;;;;;;;0.32;0.32;;;;;;;4.45;100.00;101732.34;4990476;28;20065;-78
2021/03/17 08:16:53;;;;;;;0.40;0.40;;;;;;;4.48;100.00;101737.06;4990706;28;20058;-77
2021/03/17 08:20:12;;;;;;;0.38;0.38;;;;;;;4.55;100.00;101741.81;4993626;28;20062;-77
2021/03/17 08:23:44;;;;;;;0.40;0.40;;;;;;;4.63;100.00;101749.72;4993821;28;20085;-78
2021/03/17 08:26:48;;;;;;;0.20;0.20;;;;;;;4.68;100.00;101767.13;4992859;28;20065;-78
2021/03/17 08:30:04;;;;;;;0.20;0.20;;;;;;;4.72;100.00;101770.66;4993827;28;20420;-77
2021/03/17 08:33:07;;;;;;;0.22;0.22;;;;;;;4.74;100.00;101769.09;4994334;28;20061;-78
2021/03/17 08:36:12;;;;;;;0.30;0.30;;;;;;;4.75;100.00;101783.69;4993557;28;20056;-77
2021/03/17 08:39:32;;;;;;;0.30;0.30;;;;;;;4.76;100.00;101780.53;4993142;28;20054;-78
2021/03/17 08:42:35;;;;;;;0.25;0.25;;;;;;;4.78;100.00;101772.66;4992460;28;20543;-78
2021/03/17 08:45:42;;;;;;;0.40;0.40;;;;;;;4.86;100.00;101785.31;4993343;28;20448;-77
2021/03/17 08:49:01;;;;;;;0.30;0.30;;;;;;;4.97;100.00;101774.28;4993182;28;20065;-77
2021/03/17 08:52:17;;;;;;;0.30;0.30;;;;;;;5.08;100.00;101753.81;4992939;28;20057;-75
2021/03/17 08:55:37;;;;;;;0.28;0.28;;;;;;;5.19;100.00;101764.88;4992196;28;20069;-77
2021/03/17 08:58:41;;;;;;;0.22;0.22;;;;;;;5.26;100.00;101754.59;4992639;28;20421;-78
2021/03/17 09:01:45;;;;;;;0.40;0.40;;;;;;;5.37;100.00;101760.16;4992731;28;20066;-76
2021/03/17 09:04:51;;;;;;;0.17;0.17;;;;;;;5.54;100.00;101736.47;4992309;28;20066;-78
2021/03/17 09:08:06;;;;;;;0.30;0.30;;;;;;;5.72;100.00;101718.69;4992559;28;20073;-79
2021/03/17 09:11:09;;;;;;;0.10;0.10;;;;;;;5.87;100.00;101722.25;4992442;28;20070;-78
2021/03/17 09:14:21;;;;;;;0.20;0.20;;;;;;;6.03;100.00;101740.00;5006260;28;20065;-78
2021/03/17 09:17:27;;;;;;;0.10;0.10;;;;;;;6.11;100.00;101732.47;5010895;28;20072;-78
2021/03/17 09:20:46;;;;;;;0.13;0.13;;;;;;;6.13;100.00;101716.25;5012354;28;20511;-78
2021/03/17 09:23:49;;;;;;;0.20;0.20;;;;;;;6.20;100.00;101715.44;5012535;28;20064;-76
2021/03/17 09:27:03;;;;;;;0.10;0.10;;;;;;;6.25;100.00;101706.75;5011881;28;20416;-76
2021/03/17 09:30:07;;;;;;;0.10;0.10;;;;;;;6.31;100.00;101697.63;5010899;28;20782;-76
2021/03/17 09:33:19;;;;;;;0.10;0.10;;;;;;;6.38;100.00;101707.88;5011937;28;20519;-78
2021/03/17 09:36:23;;;;;;;;;;;;;;;6.49;100.00;101703.09;5011400;28;20076;-78
2021/03/17 09:39:26;;;;;;;0.20;0.20;;;;;;;6.63;100.00;101708.53;5012044;28;19921;-76
2021/03/17 09:42:35;;;;;;;0.10;0.10;;;;;;;6.67;100.00;101699.00;5011603;28;20065;-78
2021/03/17 09:45:38;;;;;;;0.17;0.17;;;;;;;6.71;100.00;101697.00;5011582;28;20053;-78
2021/03/17 09:48:42;;;;;;;0.10;0.10;;;;;;;6.62;100.00;101674.56;5011633;28;20061;-76
2021/03/17 09:51:55;;;;;;;0.10;0.10;;;;;;;6.61;100.00;101677.69;5011299;28;20080;-77
2021/03/17 09:54:58;;;;;;;0.20;0.20;;;;;;;6.57;100.00;101658.34;5011108;28;20057;-78
2021/03/17 09:58:05;;;;;;;0.10;0.10;;;;;;;6.63;100.00;101665.03;5010732;28;20065;-78
2021/03/17 10:01:13;;;;;;;0.10;0.10;;;;;;;6.63;100.00;101689.16;5011825;28;20060;-78
2021/03/17 10:04:42;;;;;;;0.10;0.10;;;;;;;6.63;100.00;101664.25;5011227;28;20102;-79
2021/03/17 10:07:46;;;;;;;0.10;0.10;;;;;;;6.71;100.00;101657.50;5010826;28;20057;-78
2021/03/17 10:10:49;;;;;;;0.10;0.10;;;;;;;6.74;100.00;101665.75;5011141;28;20057;-78
2021/03/17 10:13:52;;;;;;;0.10;0.10;;;;;;;6.72;100.00;101668.16;5011085;28;20551;-77
2021/03/17 10:16:58;;;;;;;0.20;0.20;;;;;;;6.67;100.00;101662.25;5010866;28;20081;-78
2021/03/17 10:20:07;;;;;;;0.13;0.13;;;;;;;6.69;100.00;101654.34;5010904;28;20061;-78
2021/03/17 10:23:10;;;;;;;0.10;0.10;;;;;;;6.69;100.00;101652.34;5011062;28;20060;-77
2021/03/17 10:26:15;;;;;;;0.10;0.10;;;;;;;6.69;100.00;101660.63;5010128;28;20073;-78
2021/03/17 10:29:19;;;;;;;0.10;0.10;;;;;;;6.67;100.00;101673.34;5009410;28;20076;-77
2021/03/17 10:32:23;;;;;;;0.10;0.10;;;;;;;6.64;100.00;101682.44;5011479;28;20080;-78
2021/03/17 10:35:30;;;;;;;0.73;0.73;;;;;;;6.68;100.00;101680.44;5011056;28;20065;-77
2021/03/17 10:38:33;;;;;;;0.32;0.32;;;;;;;6.67;100.00;101699.00;5011062;28;20069;-77
2021/03/17 10:41:44;;;;;;;0.20;0.20;;;;;;;6.69;100.00;101706.94;5009819;28;20076;-77
2021/03/17 10:45:00;;;;;;;0.20;0.20;;;;;;;6.77;100.00;101702.94;5010703;28;20081;-77
2021/03/17 10:48:16;;;;;;;0.10;0.10;;;;;;;6.92;100.00;101698.88;5010569;28;20072;-77
2021/03/17 10:51:20;;;;;;;0.10;0.10;;;;;;;7.08;100.00;101685.28;5009855;28;20408;-77
2021/03/17 10:54:44;;;;;;;0.10;0.10;;;;;;;7.14;100.00;101669.84;5009344;28;20084;-77
2021/03/17 10:57:48;;;;;;;0.10;0.10;;;;;;;7.26;100.00;101674.88;5009965;28;20072;-78
2021/03/17 11:00:54;;;;;;;0.10;0.10;;;;;;;7.33;100.00;101674.81;5010968;28;20535;-76
2021/03/17 11:04:08;;;;;;;0.10;0.00;;;;;;;7.22;100.00;101674.13;5009436;28;20061;-78
2021/03/17 11:07:14;;;;;;;0.30;0.30;;;;;;;7.15;100.00;101668.63;5007678;28;20065;-77
2021/03/17 11:10:36;;;;;;;0.10;0.10;;;;;;;7.07;100.00;101688.47;5007579;28;20064;-77
2021/03/17 11:13:46;;;;;;;0.17;0.17;;;;;;;6.97;100.00;101689.34;5008362;28;20072;-77
2021/03/17 11:16:50;;;;;;;0.10;0.10;;;;;;;6.89;100.00;101667.25;5008341;28;20061;-78
2021/03/17 11:19:59;;;;;;;0.30;0.30;;;;;;;6.78;100.00;101662.97;5009605;28;20527;-77
2021/03/17 11:23:16;;;;;;;0.10;0.10;;;;;;;6.73;100.00;101658.66;5004907;28;20077;-78
2021/03/17 11:26:22;;;;;;;0.10;0.10;;;;;;;6.72;100.00;101667.34;5009666;28;20057;-77
2021/03/17 11:29:28;;;;;;;0.10;0.10;;;;;;;6.69;100.00;101701.41;5010365;28;20053;-78
2021/03/17 11:32:31;;;;;;;0.10;0.10;;;;;;;6.65;100.00;101695.06;5010721;28;20065;-77
2021/03/17 11:35:34;;;;;;;0.20;0.20;;;;;;;6.66;100.00;101680.06;5010034;28;20069;-78
2021/03/17 11:38:38;;;;;;;0.20;0.20;;;;;;;6.70;100.00;101655.91;5010081;28;20065;-78
2021/03/17 11:41:44;;;;;;;0.10;0.10;;;;;;;6.73;100.00;101652.34;5009775;28;20056;-78
2021/03/17 11:44:48;;;;;;;0.20;0.20;;;;;;;6.80;100.00;101641.19;5009666;28;20077;-77
2021/03/17 11:47:52;;;;;;;0.10;0.10;;;;;;;6.92;100.00;101643.50;5010113;28;20065;-77
2021/03/17 11:50:57;;;;;;;0.10;0.10;;;;;;;7.01;100.00;101696.44;5009893;28;20542;-76
2021/03/17 11:54:00;;;;;;;0.10;0.10;;;;;;;7.06;100.00;101753.41;5013246;28;20057;-76
2021/03/17 11:57:05;;;;;;;0.10;0.10;;;;;;;7.07;100.00;101739.13;5013497;28;20411;-77
2021/03/17 12:00:09;;;;;;;0.13;0.13;;;;;;;7.09;100.00;101736.75;5013670;28;20419;-78
2021/03/17 12:03:13;;;;;;;0.13;0.13;;;;;;;7.10;100.00;101729.22;5013703;28;20060;-79
2021/03/17 12:06:16;;;;;;;0.10;0.00;;;;;;;7.06;100.00;101726.47;5013073;28;20069;-78
2021/03/17 12:09:20;;;;;;;0.20;0.20;;;;;;;7.03;100.00;101732.03;5012159;28;20412;-77
2021/03/17 12:12:24;;;;;;;0.10;0.10;;;;;;;7.01;100.00;101726.91;5010828;28;20060;-78
2021/03/17 12:15:29;;;;;;;0.10;0.10;;;;;;;7.01;100.00;101713.06;5012498;28;20073;-77
2021/03/17 12:18:32;;;;;;;0.20;0.20;;;;;;;6.98;100.00;101718.63;5012698;28;20077;-78
2021/03/17 12:21:35;;;;;;;0.10;0.10;;;;;;;6.92;100.00;101693.34;5012981;28;20161;-78
2021/03/17 12:24:39;;;;;;;0.10;0.10;;;;;;;6.94;100.00;101690.94;5012980;28;20061;-78
2021/03/17 12:27:43;;;;;;;0.10;0.10;;;;;;;7.07;100.00;101683.75;5012522;28;20065;-78
2021/03/17 12:30:46;;;;;;;0.20;0.20;;;;;;;7.27;100.00;101676.47;5013357;28;20087;-78
2021/03/17 12:33:50;;;;;;;0.10;0.10;;;;;;;7.59;100.00;101656.75;5011319;28;20064;-78
2021/03/17 12:36:54;;;;;;;0.20;0.20;;;;;;;7.89;100.00;101672.69;5011208;28;20060;-78
2021/03/17 12:39:58;;;;;;;0.10;0.10;;;;;;;8.21;100.00;101664.75;5011929;28;20539;-77
2021/03/17 12:43:01;;;;;;;0.10;0.00;;;;;;;8.45;100.00;101660.91;5011794;28;20065;-75
2021/03/17 12:46:05;;;;;;;0.20;0.20;;;;;;;8.65;100.00;101664.63;5011898;28;20519;-76
2021/03/17 12:49:08;;;;;;;0.10;0.10;;;;;;;8.81;100.00;101656.47;5007168;28;20113;-76
2021/03/17 12:52:12;;;;;;;0.10;0.10;;;;;;;8.81;100.00;101645.34;5012609;28;20072;-75
2021/03/17 12:55:15;;;;;;;0.10;0.10;;;;;;;8.89;100.00;101646.81;5008205;28;20064;-75
2021/03/17 12:58:18;;;;;;;0.10;0.10;;;;;;;8.91;100.00;101636.06;5011299;28;20053;-76
2021/03/17 13:01:22;;;;;;;0.10;0.10;;;;;;;8.91;100.00;101621.38;5012993;28;20061;-74
2021/03/17 13:04:25;;;;;;;0.10;0.10;;;;;;;8.85;100.00;101618.28;5011474;28;20053;-76
2021/03/17 13:07:29;;;;;;;0.10;0.10;;;;;;;8.70;100.00;101605.84;5012527;28;20065;-76
2021/03/17 13:10:34;;;;;;;0.10;0.10;;;;;;;8.77;100.00;101611.25;5014909;28;20065;-77
2021/03/17 13:13:37;;;;;;;0.10;0.10;;;;;;;8.85;100.00;101600.84;5010246;28;20180;-80
2021/03/17 13:16:41;;;;;;;0.10;0.10;;;;;;;8.94;100.00;101603.88;5012097;28;20061;-78
2021/03/17 13:19:44;;;;;;;0.10;0.10;;;;;;;9.00;100.00;101602.97;5011919;28;20061;-76
2021/03/17 13:22:48;;;;;;;0.00;0.00;;;;;;;9.09;100.00;101603.22;5011613;28;20522;-76
2021/03/17 13:25:52;;;;;;;0.10;0.10;;;;;;;9.24;100.00;101605.72;5011967;28;20427;-75
2021/03/17 13:28:55;;;;;;;0.10;0.00;;;;;;;9.27;100.00;101616.00;5011951;28;20061;-75
2021/03/17 13:31:59;;;;;;;0.10;0.10;;;;;;;9.28;100.00;101606.44;5011522;28;20415;-78
2021/03/17 13:35:04;;;;;;;0.10;0.10;;;;;;;9.30;100.00;101609.59;5011899;28;20061;-75
2021/03/17 13:38:09;;;;;;;0.10;0.10;;;;;;;9.32;100.00;101609.94;5011967;28;20065;-75
2021/03/17 13:41:13;;;;;;;0.10;0.10;;;;;;;9.37;100.00;101603.91;5011838;28;20072;-78
2021/03/17 13:44:16;;;;;;;0.10;0.05;;;;;;;9.34;100.00;101594.41;5011612;28;20061;-78
2021/03/17 13:47:19;;;;;;;0.10;0.10;;;;;;;9.24;100.00;101584.28;5010703;28;20053;-78
2021/03/17 13:50:24;;;;;;;0.10;0.10;;;;;;;9.13;100.00;101590.03;5011328;28;20053;-77
2021/03/17 13:53:28;;;;;;;0.10;0.10;;;;;;;8.96;100.00;101588.34;5011294;28;20068;-77
2021/03/17 13:56:32;;;;;;;0.10;0.10;;;;;;;8.69;100.00;101595.91;5011312;28;20087;-78
2021/03/17 13:59:36;;;;;;;0.10;0.10;;;;;;;8.45;100.00;101588.72;5011333;28;20061;-77
2021/03/17 14:02:40;;;;;;;0.32;0.30;;;;;;;8.48;100.00;101593.47;5011602;28;20065;-76
2021/03/17 14:05:44;;;;;;;0.10;0.10;;;;;;;8.58;100.00;101581.41;5011329;28;20519;-76
2021/03/17 14:08:48;;;;;;;0.17;0.17;;;;;;;8.80;100.00;101590.97;5008601;28;20065;-76
2021/03/17 14:11:53;;;;;;;0.10;0.10;;;;;;;8.73;100.00;101585.53;5010550;28;20539;-77
2021/03/17 14:14:56;;;;;;;0.10;0.10;;;;;;;8.68;100.00;101574.13;4991213;28;20065;-77
2021/03/17 14:18:00;;;;;;;0.10;0.10;;;;;;;8.53;100.00;101583.88;4991594;28;20057;-77
2021/03/17 14:21:04;;;;;;;0.10;0.10;;;;;;;8.46;100.00;101582.00;5001414;28;20415;-77
2021/03/17 14:24:09;;;;;;;0.10;0.10;;;;;;;8.57;100.00;101574.28;5024282;28;20523;-78
2021/03/17 14:27:12;;;;;;;0.10;0.10;;;;;;;8.45;100.00;101572.06;4990891;28;20081;-77
2021/03/17 14:30:16;;;;;;;0.20;0.20;;;;;;;8.27;100.00;101582.66;4991052;28;20065;-77